sensor_id;sensor_type;location;lat;lon;timestamp;P1;durP1;ratioP1;P2;durP2;ratioP2
43933;SDS011;59081;42.706;23.306;2022-09-09T00:00:40;11.43;;;7.78;;
43933;SDS011;59081;42.706;23.306;2022-09-09T00:03:38;12.30;;;8.27;;
43933;SDS011;59081;42.706;23.306;2022-09-09T00:06:21;10.85;;;7.75;;
43933;SDS011;59081;42.706;23.306;2022-09-09T00:22:25;12.52;;;8.80;;
43933;SDS011;59081;42.706;23.306;2022-09-09T00:24:56;12.43;;;8.57;;
43933;SDS011;59081;42.706;23.306;2022-09-09T00:27:45;12.00;;;8.70;;
43933;SDS011;59081;42.706;23.306;2022-09-09T00:30:19;10.80;;;9.63;;
43933;SDS011;59081;42.706;23.306;2022-09-09T00:33:33;11.07;;;8.70;;
43933;SDS011;59081;42.706;23.306;2022-09-09T00:35:40;11.75;;;8.68;;
43933;SDS011;59081;42.706;23.306;2022-09-09T00:38:14;16.20;;;9.85;;
43933;SDS011;59081;42.706;23.306;2022-09-09T00:40:50;12.10;;;8.52;;
43933;SDS011;59081;42.706;23.306;2022-09-09T00:43:30;12.40;;;8.70;;
43933;SDS011;59081;42.706;23.306;2022-09-09T00:46:01;16.33;;;8.50;;
43933;SDS011;59081;42.706;23.306;2022-09-09T00:51:15;13.82;;;8.95;;
43933;SDS011;59081;42.706;23.306;2022-09-09T00:59:21;16.27;;;8.75;;
43933;SDS011;59081;42.706;23.306;2022-09-09T01:01:49;11.77;;;8.35;;
43933;SDS011;59081;42.706;23.306;2022-09-09T01:04:18;9.35;;;8.35;;
43933;SDS011;59081;42.706;23.306;2022-09-09T01:06:55;13.00;;;9.20;;
43933;SDS011;59081;42.706;23.306;2022-09-09T01:14:50;11.55;;;7.78;;
43933;SDS011;59081;42.706;23.306;2022-09-09T01:17:36;9.48;;;7.88;;
43933;SDS011;59081;42.706;23.306;2022-09-09T01:20:25;10.73;;;8.52;;
43933;SDS011;59081;42.706;23.306;2022-09-09T01:28:10;10.70;;;8.85;;
43933;SDS011;59081;42.706;23.306;2022-09-09T01:30:40;15.50;;;8.40;;
43933;SDS011;59081;42.706;23.306;2022-09-09T01:33:07;12.52;;;8.85;;
43933;SDS011;59081;42.706;23.306;2022-09-09T01:38:26;12.52;;;9.57;;
43933;SDS011;59081;42.706;23.306;2022-09-09T01:40:53;21.13;;;10.13;;
43933;SDS011;59081;42.706;23.306;2022-09-09T01:43:22;12.73;;;9.77;;
43933;SDS011;59081;42.706;23.306;2022-09-09T01:45:51;13.10;;;9.03;;
43933;SDS011;59081;42.706;23.306;2022-09-09T01:48:19;11.50;;;9.30;;
43933;SDS011;59081;42.706;23.306;2022-09-09T01:50:47;13.80;;;9.18;;
43933;SDS011;59081;42.706;23.306;2022-09-09T01:53:13;21.13;;;9.68;;
43933;SDS011;59081;42.706;23.306;2022-09-09T01:55:42;10.02;;;8.50;;
43933;SDS011;59081;42.706;23.306;2022-09-09T02:00:56;11.13;;;9.65;;
43933;SDS011;59081;42.706;23.306;2022-09-09T02:03:33;13.00;;;9.43;;
43933;SDS011;59081;42.706;23.306;2022-09-09T02:08:48;12.73;;;9.98;;
43933;SDS011;59081;42.706;23.306;2022-09-09T02:11:17;11.02;;;9.73;;
43933;SDS011;59081;42.706;23.306;2022-09-09T02:13:47;11.98;;;9.80;;
43933;SDS011;59081;42.706;23.306;2022-09-09T02:16:59;11.25;;;9.55;;
43933;SDS011;59081;42.706;23.306;2022-09-09T02:19:11;12.10;;;9.45;;
43933;SDS011;59081;42.706;23.306;2022-09-09T02:21:48;13.85;;;9.73;;
43933;SDS011;59081;42.706;23.306;2022-09-09T02:24:15;15.07;;;9.95;;
43933;SDS011;59081;42.706;23.306;2022-09-09T02:26:41;13.88;;;10.52;;
43933;SDS011;59081;42.706;23.306;2022-09-09T02:29:11;11.68;;;10.02;;
43933;SDS011;59081;42.706;23.306;2022-09-09T02:31:39;13.57;;;10.38;;
43933;SDS011;59081;42.706;23.306;2022-09-09T02:34:06;15.68;;;10.15;;
43933;SDS011;59081;42.706;23.306;2022-09-09T02:36:35;15.25;;;9.77;;
43933;SDS011;59081;42.706;23.306;2022-09-09T02:39:04;16.40;;;10.90;;
43933;SDS011;59081;42.706;23.306;2022-09-09T02:41:33;15.10;;;11.30;;
43933;SDS011;59081;42.706;23.306;2022-09-09T02:44:00;13.68;;;10.73;;
43933;SDS011;59081;42.706;23.306;2022-09-09T02:52:18;15.57;;;10.30;;
43933;SDS011;59081;42.706;23.306;2022-09-09T02:54:50;17.55;;;12.20;;
43933;SDS011;59081;42.706;23.306;2022-09-09T02:57:32;10.73;;;9.35;;
43933;SDS011;59081;42.706;23.306;2022-09-09T02:59:59;13.23;;;9.93;;
43933;SDS011;59081;42.706;23.306;2022-09-09T03:02:26;13.05;;;10.05;;
43933;SDS011;59081;42.706;23.306;2022-09-09T03:04:51;18.13;;;11.45;;
43933;SDS011;59081;42.706;23.306;2022-09-09T03:07:20;13.15;;;9.95;;
43933;SDS011;59081;42.706;23.306;2022-09-09T03:09:46;13.60;;;10.82;;
43933;SDS011;59081;42.706;23.306;2022-09-09T03:12:12;13.98;;;10.73;;
43933;SDS011;59081;42.706;23.306;2022-09-09T03:14:38;14.88;;;10.25;;
43933;SDS011;59081;42.706;23.306;2022-09-09T03:17:04;14.27;;;10.52;;
43933;SDS011;59081;42.706;23.306;2022-09-09T03:19:30;17.52;;;10.57;;
43933;SDS011;59081;42.706;23.306;2022-09-09T03:21:56;12.25;;;10.65;;
43933;SDS011;59081;42.706;23.306;2022-09-09T03:24:23;17.40;;;11.65;;
43933;SDS011;59081;42.706;23.306;2022-09-09T03:26:49;13.43;;;10.93;;
43933;SDS011;59081;42.706;23.306;2022-09-09T03:29:15;19.75;;;11.00;;
43933;SDS011;59081;42.706;23.306;2022-09-09T03:31:41;16.88;;;11.15;;
43933;SDS011;59081;42.706;23.306;2022-09-09T03:34:07;17.02;;;11.05;;
43933;SDS011;59081;42.706;23.306;2022-09-09T03:36:33;11.07;;;9.90;;
43933;SDS011;59081;42.706;23.306;2022-09-09T03:38:59;12.25;;;10.10;;
43933;SDS011;59081;42.706;23.306;2022-09-09T03:41:25;14.13;;;10.25;;
43933;SDS011;59081;42.706;23.306;2022-09-09T03:43:51;13.95;;;9.55;;
43933;SDS011;59081;42.706;23.306;2022-09-09T03:46:36;13.68;;;10.77;;
43933;SDS011;59081;42.706;23.306;2022-09-09T03:49:02;15.07;;;10.52;;
43933;SDS011;59081;42.706;23.306;2022-09-09T03:51:28;16.65;;;10.88;;
43933;SDS011;59081;42.706;23.306;2022-09-09T03:53:53;15.55;;;9.90;;
43933;SDS011;59081;42.706;23.306;2022-09-09T03:56:21;18.20;;;11.23;;
43933;SDS011;59081;42.706;23.306;2022-09-09T03:58:47;9.65;;;8.50;;
43933;SDS011;59081;42.706;23.306;2022-09-09T04:01:13;11.50;;;9.57;;
43933;SDS011;59081;42.706;23.306;2022-09-09T04:03:40;18.88;;;10.68;;
43933;SDS011;59081;42.706;23.306;2022-09-09T04:06:06;18.17;;;10.13;;
43933;SDS011;59081;42.706;23.306;2022-09-09T04:08:34;17.95;;;9.90;;
43933;SDS011;59081;42.706;23.306;2022-09-09T04:11:01;13.90;;;9.85;;
43933;SDS011;59081;42.706;23.306;2022-09-09T04:13:30;14.82;;;9.93;;
43933;SDS011;59081;42.706;23.306;2022-09-09T04:15:57;17.65;;;8.23;;
43933;SDS011;59081;42.706;23.306;2022-09-09T04:18:24;11.80;;;9.40;;
43933;SDS011;59081;42.706;23.306;2022-09-09T04:20:51;17.25;;;10.23;;
43933;SDS011;59081;42.706;23.306;2022-09-09T04:23:18;23.63;;;9.18;;
43933;SDS011;59081;42.706;23.306;2022-09-09T04:25:45;12.82;;;10.00;;
43933;SDS011;59081;42.706;23.306;2022-09-09T04:28:15;17.88;;;10.27;;
43933;SDS011;59081;42.706;23.306;2022-09-09T04:30:42;19.13;;;12.07;;
43933;SDS011;59081;42.706;23.306;2022-09-09T04:33:08;15.68;;;10.88;;
43933;SDS011;59081;42.706;23.306;2022-09-09T04:35:35;16.70;;;11.35;;
43933;SDS011;59081;42.706;23.306;2022-09-09T04:38:01;16.10;;;10.80;;
43933;SDS011;59081;42.706;23.306;2022-09-09T04:40:27;15.00;;;11.65;;
43933;SDS011;59081;42.706;23.306;2022-09-09T04:42:54;17.30;;;10.85;;
43933;SDS011;59081;42.706;23.306;2022-09-09T04:45:20;16.42;;;10.98;;
43933;SDS011;59081;42.706;23.306;2022-09-09T04:47:46;16.08;;;10.35;;
43933;SDS011;59081;42.706;23.306;2022-09-09T04:50:11;14.18;;;10.73;;
43933;SDS011;59081;42.706;23.306;2022-09-09T04:52:37;20.92;;;17.70;;
43933;SDS011;59081;42.706;23.306;2022-09-09T04:55:02;16.30;;;11.57;;
43933;SDS011;59081;42.706;23.306;2022-09-09T04:57:28;24.75;;;12.50;;
43933;SDS011;59081;42.706;23.306;2022-09-09T04:59:57;16.98;;;11.27;;
43933;SDS011;59081;42.706;23.306;2022-09-09T05:02:27;22.48;;;10.85;;
43933;SDS011;59081;42.706;23.306;2022-09-09T05:04:52;18.42;;;11.77;;
43933;SDS011;59081;42.706;23.306;2022-09-09T05:07:18;17.20;;;12.68;;
43933;SDS011;59081;42.706;23.306;2022-09-09T05:09:44;15.77;;;12.88;;
43933;SDS011;59081;42.706;23.306;2022-09-09T05:12:10;17.55;;;11.30;;
43933;SDS011;59081;42.706;23.306;2022-09-09T05:14:36;15.38;;;11.32;;
43933;SDS011;59081;42.706;23.306;2022-09-09T05:17:02;17.73;;;11.70;;
43933;SDS011;59081;42.706;23.306;2022-09-09T05:19:28;15.55;;;11.43;;
43933;SDS011;59081;42.706;23.306;2022-09-09T05:21:55;13.27;;;11.23;;
43933;SDS011;59081;42.706;23.306;2022-09-09T05:24:21;17.98;;;11.98;;
43933;SDS011;59081;42.706;23.306;2022-09-09T05:26:48;15.90;;;11.02;;
43933;SDS011;59081;42.706;23.306;2022-09-09T05:29:13;22.33;;;10.45;;
43933;SDS011;59081;42.706;23.306;2022-09-09T05:31:39;14.75;;;9.85;;
43933;SDS011;59081;42.706;23.306;2022-09-09T05:34:06;15.35;;;10.40;;
43933;SDS011;59081;42.706;23.306;2022-09-09T05:36:31;16.63;;;9.95;;
43933;SDS011;59081;42.706;23.306;2022-09-09T05:38:57;13.65;;;10.00;;
43933;SDS011;59081;42.706;23.306;2022-09-09T05:41:23;16.15;;;9.90;;
43933;SDS011;59081;42.706;23.306;2022-09-09T05:43:48;22.23;;;10.32;;
43933;SDS011;59081;42.706;23.306;2022-09-09T05:46:15;20.77;;;10.70;;
43933;SDS011;59081;42.706;23.306;2022-09-09T05:48:43;15.25;;;10.05;;
43933;SDS011;59081;42.706;23.306;2022-09-09T05:51:17;24.40;;;12.15;;
43933;SDS011;59081;42.706;23.306;2022-09-09T05:53:47;25.33;;;11.18;;
43933;SDS011;59081;42.706;23.306;2022-09-09T05:56:17;24.08;;;12.07;;
43933;SDS011;59081;42.706;23.306;2022-09-09T05:58:44;18.88;;;11.38;;
43933;SDS011;59081;42.706;23.306;2022-09-09T06:01:15;20.55;;;10.65;;
43933;SDS011;59081;42.706;23.306;2022-09-09T06:03:43;18.80;;;10.30;;
43933;SDS011;59081;42.706;23.306;2022-09-09T06:06:10;18.52;;;10.98;;
43933;SDS011;59081;42.706;23.306;2022-09-09T06:08:38;28.15;;;11.60;;
43933;SDS011;59081;42.706;23.306;2022-09-09T06:11:08;18.70;;;10.88;;
43933;SDS011;59081;42.706;23.306;2022-09-09T06:13:37;19.30;;;10.15;;
43933;SDS011;59081;42.706;23.306;2022-09-09T06:16:04;13.32;;;10.45;;
43933;SDS011;59081;42.706;23.306;2022-09-09T06:18:32;14.13;;;10.35;;
43933;SDS011;59081;42.706;23.306;2022-09-09T06:20:58;20.95;;;9.85;;
43933;SDS011;59081;42.706;23.306;2022-09-09T06:23:31;19.15;;;10.55;;
43933;SDS011;59081;42.706;23.306;2022-09-09T06:30:59;13.38;;;9.07;;
43933;SDS011;59081;42.706;23.306;2022-09-09T06:33:26;15.33;;;9.97;;
43933;SDS011;59081;42.706;23.306;2022-09-09T06:35:55;13.13;;;9.57;;
43933;SDS011;59081;42.706;23.306;2022-09-09T06:38:22;13.32;;;9.05;;
43933;SDS011;59081;42.706;23.306;2022-09-09T06:40:52;19.40;;;8.48;;
43933;SDS011;59081;42.706;23.306;2022-09-09T06:43:20;16.73;;;9.68;;
43933;SDS011;59081;42.706;23.306;2022-09-09T06:45:53;14.57;;;9.32;;
43933;SDS011;59081;42.706;23.306;2022-09-09T06:48:19;20.23;;;10.32;;
43933;SDS011;59081;42.706;23.306;2022-09-09T06:50:44;14.13;;;9.32;;
43933;SDS011;59081;42.706;23.306;2022-09-09T06:53:10;11.95;;;7.78;;
43933;SDS011;59081;42.706;23.306;2022-09-09T06:55:35;11.18;;;7.03;;
43933;SDS011;59081;42.706;23.306;2022-09-09T06:58:01;8.85;;;5.55;;
43933;SDS011;59081;42.706;23.306;2022-09-09T07:00:26;5.95;;;5.00;;
43933;SDS011;59081;42.706;23.306;2022-09-09T07:02:52;9.05;;;5.32;;
43933;SDS011;59081;42.706;23.306;2022-09-09T07:05:17;7.47;;;6.10;;
43933;SDS011;59081;42.706;23.306;2022-09-09T07:07:43;6.30;;;4.97;;
43933;SDS011;59081;42.706;23.306;2022-09-09T07:10:08;7.38;;;5.10;;
43933;SDS011;59081;42.706;23.306;2022-09-09T07:12:34;16.42;;;5.50;;
43933;SDS011;59081;42.706;23.306;2022-09-09T07:14:59;7.78;;;5.30;;
43933;SDS011;59081;42.706;23.306;2022-09-09T07:17:25;8.23;;;5.55;;
43933;SDS011;59081;42.706;23.306;2022-09-09T07:19:50;6.75;;;5.07;;
43933;SDS011;59081;42.706;23.306;2022-09-09T07:22:16;8.32;;;5.20;;
43933;SDS011;59081;42.706;23.306;2022-09-09T07:24:41;7.50;;;5.28;;
43933;SDS011;59081;42.706;23.306;2022-09-09T07:27:06;13.57;;;6.43;;
43933;SDS011;59081;42.706;23.306;2022-09-09T07:29:32;8.35;;;5.28;;
43933;SDS011;59081;42.706;23.306;2022-09-09T07:31:57;9.73;;;5.57;;
43933;SDS011;59081;42.706;23.306;2022-09-09T07:34:23;10.73;;;5.78;;
43933;SDS011;59081;42.706;23.306;2022-09-09T07:36:49;9.10;;;6.60;;
43933;SDS011;59081;42.706;23.306;2022-09-09T07:39:14;13.10;;;6.15;;
43933;SDS011;59081;42.706;23.306;2022-09-09T07:41:43;11.50;;;5.70;;
43933;SDS011;59081;42.706;23.306;2022-09-09T07:46:44;11.23;;;5.93;;
43933;SDS011;59081;42.706;23.306;2022-09-09T07:49:10;10.23;;;6.00;;
43933;SDS011;59081;42.706;23.306;2022-09-09T07:51:40;10.98;;;6.18;;
43933;SDS011;59081;42.706;23.306;2022-09-09T07:54:08;12.60;;;7.20;;
43933;SDS011;59081;42.706;23.306;2022-09-09T07:56:36;8.73;;;5.75;;
43933;SDS011;59081;42.706;23.306;2022-09-09T07:59:02;8.90;;;6.13;;
43933;SDS011;59081;42.706;23.306;2022-09-09T08:01:41;7.57;;;5.68;;
43933;SDS011;59081;42.706;23.306;2022-09-09T08:04:15;8.57;;;5.93;;
43933;SDS011;59081;42.706;23.306;2022-09-09T08:06:43;11.25;;;6.53;;
43933;SDS011;59081;42.706;23.306;2022-09-09T08:09:20;6.93;;;5.30;;
43933;SDS011;59081;42.706;23.306;2022-09-09T08:11:46;11.98;;;6.22;;
43933;SDS011;59081;42.706;23.306;2022-09-09T08:14:12;9.27;;;5.50;;
43933;SDS011;59081;42.706;23.306;2022-09-09T08:16:42;11.07;;;5.78;;
43933;SDS011;59081;42.706;23.306;2022-09-09T08:19:09;10.95;;;5.43;;
43933;SDS011;59081;42.706;23.306;2022-09-09T08:21:35;9.68;;;5.45;;
43933;SDS011;59081;42.706;23.306;2022-09-09T08:24:04;10.88;;;5.10;;
43933;SDS011;59081;42.706;23.306;2022-09-09T08:26:33;13.90;;;5.22;;
43933;SDS011;59081;42.706;23.306;2022-09-09T08:29:01;9.98;;;5.35;;
43933;SDS011;59081;42.706;23.306;2022-09-09T08:31:29;8.90;;;5.38;;
43933;SDS011;59081;42.706;23.306;2022-09-09T08:33:57;11.07;;;5.90;;
43933;SDS011;59081;42.706;23.306;2022-09-09T08:36:30;11.27;;;5.78;;
43933;SDS011;59081;42.706;23.306;2022-09-09T08:39:02;31.33;;;8.70;;
43933;SDS011;59081;42.706;23.306;2022-09-09T08:44:36;9.93;;;5.18;;
43933;SDS011;59081;42.706;23.306;2022-09-09T08:50:25;7.63;;;5.25;;
43933;SDS011;59081;42.706;23.306;2022-09-09T08:52:56;10.95;;;5.80;;
43933;SDS011;59081;42.706;23.306;2022-09-09T08:55:35;5.88;;;4.90;;
43933;SDS011;59081;42.706;23.306;2022-09-09T08:58:15;12.57;;;5.30;;
43933;SDS011;59081;42.706;23.306;2022-09-09T09:06:11;10.90;;;5.25;;
43933;SDS011;59081;42.706;23.306;2022-09-09T09:11:53;7.82;;;4.90;;
43933;SDS011;59081;42.706;23.306;2022-09-09T09:14:25;15.50;;;4.93;;
43933;SDS011;59081;42.706;23.306;2022-09-09T09:19:38;170.40;;;19.40;;
43933;SDS011;59081;42.706;23.306;2022-09-09T09:24:56;8.93;;;5.40;;
43933;SDS011;59081;42.706;23.306;2022-09-09T09:27:36;10.63;;;5.40;;
43933;SDS011;59081;42.706;23.306;2022-09-09T09:32:44;11.15;;;6.60;;
43933;SDS011;59081;42.706;23.306;2022-09-09T09:35:25;9.07;;;5.65;;
43933;SDS011;59081;42.706;23.306;2022-09-09T09:37:51;7.78;;;5.75;;
43933;SDS011;59081;42.706;23.306;2022-09-09T09:40:18;12.57;;;6.20;;
43933;SDS011;59081;42.706;23.306;2022-09-09T09:42:55;10.20;;;5.80;;
43933;SDS011;59081;42.706;23.306;2022-09-09T09:45:34;9.82;;;5.50;;
43933;SDS011;59081;42.706;23.306;2022-09-09T09:48:09;9.45;;;6.03;;
43933;SDS011;59081;42.706;23.306;2022-09-09T09:50:39;10.32;;;5.40;;
43933;SDS011;59081;42.706;23.306;2022-09-09T09:53:33;13.18;;;5.90;;
43933;SDS011;59081;42.706;23.306;2022-09-09T09:58:32;10.07;;;5.82;;
43933;SDS011;59081;42.706;23.306;2022-09-09T10:01:30;13.15;;;5.72;;
43933;SDS011;59081;42.706;23.306;2022-09-09T10:04:01;11.45;;;5.80;;
43933;SDS011;59081;42.706;23.306;2022-09-09T10:06:39;8.35;;;5.50;;
43933;SDS011;59081;42.706;23.306;2022-09-09T10:09:24;12.18;;;6.25;;
43933;SDS011;59081;42.706;23.306;2022-09-09T10:17:32;7.50;;;5.50;;
43933;SDS011;59081;42.706;23.306;2022-09-09T10:22:52;12.50;;;5.97;;
43933;SDS011;59081;42.706;23.306;2022-09-09T10:25:38;7.70;;;6.03;;
43933;SDS011;59081;42.706;23.306;2022-09-09T10:31:40;8.48;;;5.38;;
43933;SDS011;59081;42.706;23.306;2022-09-09T10:37:20;11.20;;;6.45;;
43933;SDS011;59081;42.706;23.306;2022-09-09T10:39:48;13.13;;;6.18;;
43933;SDS011;59081;42.706;23.306;2022-09-09T10:42:23;13.80;;;6.22;;
43933;SDS011;59081;42.706;23.306;2022-09-09T10:52:58;10.15;;;7.18;;
43933;SDS011;59081;42.706;23.306;2022-09-09T10:55:44;23.83;;;6.97;;
43933;SDS011;59081;42.706;23.306;2022-09-09T11:00:54;12.50;;;6.90;;
43933;SDS011;59081;42.706;23.306;2022-09-09T11:03:28;10.98;;;6.70;;
43933;SDS011;59081;42.706;23.306;2022-09-09T11:08:38;18.02;;;6.70;;
43933;SDS011;59081;42.706;23.306;2022-09-09T11:11:21;11.15;;;6.78;;
43933;SDS011;59081;42.706;23.306;2022-09-09T11:14:12;13.70;;;6.18;;
43933;SDS011;59081;42.706;23.306;2022-09-09T11:16:58;17.88;;;6.60;;
43933;SDS011;59081;42.706;23.306;2022-09-09T11:19:33;18.20;;;6.68;;
43933;SDS011;59081;42.706;23.306;2022-09-09T11:22:01;12.95;;;6.25;;
43933;SDS011;59081;42.706;23.306;2022-09-09T11:24:45;15.35;;;6.40;;
43933;SDS011;59081;42.706;23.306;2022-09-09T11:38:29;11.57;;;6.22;;
43933;SDS011;59081;42.706;23.306;2022-09-09T11:41:06;11.52;;;6.65;;
43933;SDS011;59081;42.706;23.306;2022-09-09T11:43:40;16.75;;;7.03;;
43933;SDS011;59081;42.706;23.306;2022-09-09T11:46:08;11.48;;;6.50;;
43933;SDS011;59081;42.706;23.306;2022-09-09T11:48:38;7.13;;;5.88;;
43933;SDS011;59081;42.706;23.306;2022-09-09T11:51:28;10.80;;;7.03;;
43933;SDS011;59081;42.706;23.306;2022-09-09T11:53:59;10.93;;;6.72;;
43933;SDS011;59081;42.706;23.306;2022-09-09T11:56:45;22.98;;;6.82;;
43933;SDS011;59081;42.706;23.306;2022-09-09T11:59:23;13.27;;;6.28;;
43933;SDS011;59081;42.706;23.306;2022-09-09T12:12:34;9.77;;;6.70;;
43933;SDS011;59081;42.706;23.306;2022-09-09T12:17:43;9.43;;;6.10;;
43933;SDS011;59081;42.706;23.306;2022-09-09T12:20:14;11.60;;;7.00;;
43933;SDS011;59081;42.706;23.306;2022-09-09T12:31:05;12.93;;;6.22;;
43933;SDS011;59081;42.706;23.306;2022-09-09T12:33:39;13.70;;;5.90;;
43933;SDS011;59081;42.706;23.306;2022-09-09T12:36:12;9.52;;;6.13;;
43933;SDS011;59081;42.706;23.306;2022-09-09T12:41:17;11.68;;;6.00;;
43933;SDS011;59081;42.706;23.306;2022-09-09T12:43:45;13.98;;;6.97;;
43933;SDS011;59081;42.706;23.306;2022-09-09T12:46:14;12.60;;;6.35;;
43933;SDS011;59081;42.706;23.306;2022-09-09T12:48:47;11.25;;;6.93;;
43933;SDS011;59081;42.706;23.306;2022-09-09T12:51:21;12.73;;;6.57;;
43933;SDS011;59081;42.706;23.306;2022-09-09T12:53:53;11.32;;;6.88;;
43933;SDS011;59081;42.706;23.306;2022-09-09T12:56:21;20.30;;;7.10;;
43933;SDS011;59081;42.706;23.306;2022-09-09T12:58:51;12.27;;;6.45;;
43933;SDS011;59081;42.706;23.306;2022-09-09T13:01:18;15.70;;;6.80;;
43933;SDS011;59081;42.706;23.306;2022-09-09T13:03:48;10.18;;;7.22;;
43933;SDS011;59081;42.706;23.306;2022-09-09T13:06:32;9.13;;;6.70;;
43933;SDS011;59081;42.706;23.306;2022-09-09T13:08:59;9.00;;;6.70;;
43933;SDS011;59081;42.706;23.306;2022-09-09T13:14:03;10.30;;;5.40;;
43933;SDS011;59081;42.706;23.306;2022-09-09T13:16:32;10.43;;;5.00;;
43933;SDS011;59081;42.706;23.306;2022-09-09T13:19:06;9.55;;;5.03;;
43933;SDS011;59081;42.706;23.306;2022-09-09T13:21:35;4.75;;;2.53;;
43933;SDS011;59081;42.706;23.306;2022-09-09T13:24:05;14.88;;;5.28;;
43933;SDS011;59081;42.706;23.306;2022-09-09T13:26:32;9.70;;;4.60;;
43933;SDS011;59081;42.706;23.306;2022-09-09T13:29:15;8.82;;;5.50;;
43933;SDS011;59081;42.706;23.306;2022-09-09T13:31:43;13.13;;;5.30;;
43933;SDS011;59081;42.706;23.306;2022-09-09T13:34:28;10.10;;;5.13;;
43933;SDS011;59081;42.706;23.306;2022-09-09T13:37:05;15.05;;;5.50;;
43933;SDS011;59081;42.706;23.306;2022-09-09T13:39:35;6.38;;;5.07;;
43933;SDS011;59081;42.706;23.306;2022-09-09T13:42:03;8.05;;;4.80;;
43933;SDS011;59081;42.706;23.306;2022-09-09T13:44:31;10.60;;;4.63;;
43933;SDS011;59081;42.706;23.306;2022-09-09T13:47:22;14.82;;;5.20;;
43933;SDS011;59081;42.706;23.306;2022-09-09T13:49:54;13.88;;;4.97;;
43933;SDS011;59081;42.706;23.306;2022-09-09T13:52:20;10.40;;;4.95;;
43933;SDS011;59081;42.706;23.306;2022-09-09T13:54:47;14.13;;;5.88;;
43933;SDS011;59081;42.706;23.306;2022-09-09T13:57:21;10.48;;;5.35;;
43933;SDS011;59081;42.706;23.306;2022-09-09T13:59:49;11.93;;;4.90;;
43933;SDS011;59081;42.706;23.306;2022-09-09T14:02:15;19.38;;;4.13;;
43933;SDS011;59081;42.706;23.306;2022-09-09T14:04:42;13.90;;;4.55;;
43933;SDS011;59081;42.706;23.306;2022-09-09T14:07:11;12.02;;;4.45;;
43933;SDS011;59081;42.706;23.306;2022-09-09T14:09:39;12.88;;;4.57;;
43933;SDS011;59081;42.706;23.306;2022-09-09T14:12:05;10.93;;;4.70;;
43933;SDS011;59081;42.706;23.306;2022-09-09T14:14:34;10.70;;;4.55;;
43933;SDS011;59081;42.706;23.306;2022-09-09T14:17:00;9.38;;;4.50;;
43933;SDS011;59081;42.706;23.306;2022-09-09T14:19:25;7.97;;;4.53;;
43933;SDS011;59081;42.706;23.306;2022-09-09T14:21:51;12.50;;;4.55;;
43933;SDS011;59081;42.706;23.306;2022-09-09T14:24:16;8.57;;;4.25;;
43933;SDS011;59081;42.706;23.306;2022-09-09T14:26:42;7.35;;;4.38;;
43933;SDS011;59081;42.706;23.306;2022-09-09T14:29:08;9.93;;;4.45;;
43933;SDS011;59081;42.706;23.306;2022-09-09T14:31:33;11.45;;;5.03;;
43933;SDS011;59081;42.706;23.306;2022-09-09T14:33:59;10.82;;;5.97;;
43933;SDS011;59081;42.706;23.306;2022-09-09T14:36:25;8.45;;;6.13;;
43933;SDS011;59081;42.706;23.306;2022-09-09T14:38:50;19.95;;;7.82;;
43933;SDS011;59081;42.706;23.306;2022-09-09T14:41:17;17.00;;;6.88;;
43933;SDS011;59081;42.706;23.306;2022-09-09T14:43:44;15.25;;;7.05;;
43933;SDS011;59081;42.706;23.306;2022-09-09T14:46:12;8.13;;;6.57;;
43933;SDS011;59081;42.706;23.306;2022-09-09T14:48:39;12.63;;;6.22;;
43933;SDS011;59081;42.706;23.306;2022-09-09T14:51:09;14.35;;;6.35;;
43933;SDS011;59081;42.706;23.306;2022-09-09T14:53:40;13.93;;;6.28;;
43933;SDS011;59081;42.706;23.306;2022-09-09T14:56:11;12.00;;;6.80;;
43933;SDS011;59081;42.706;23.306;2022-09-09T14:58:38;9.80;;;6.10;;
43933;SDS011;59081;42.706;23.306;2022-09-09T15:01:10;11.38;;;6.75;;
43933;SDS011;59081;42.706;23.306;2022-09-09T15:03:37;18.63;;;6.43;;
43933;SDS011;59081;42.706;23.306;2022-09-09T15:06:05;16.15;;;6.50;;
43933;SDS011;59081;42.706;23.306;2022-09-09T15:08:38;15.20;;;5.75;;
43933;SDS011;59081;42.706;23.306;2022-09-09T15:11:05;15.18;;;7.10;;
43933;SDS011;59081;42.706;23.306;2022-09-09T15:13:35;18.65;;;5.68;;
43933;SDS011;59081;42.706;23.306;2022-09-09T15:16:24;14.18;;;5.90;;
43933;SDS011;59081;42.706;23.306;2022-09-09T15:18:52;14.82;;;6.05;;
43933;SDS011;59081;42.706;23.306;2022-09-09T15:21:20;14.18;;;6.20;;
43933;SDS011;59081;42.706;23.306;2022-09-09T15:23:47;11.77;;;5.57;;
43933;SDS011;59081;42.706;23.306;2022-09-09T15:26:14;15.65;;;6.25;;
43933;SDS011;59081;42.706;23.306;2022-09-09T15:28:40;11.13;;;6.00;;
43933;SDS011;59081;42.706;23.306;2022-09-09T15:31:18;17.02;;;6.43;;
43933;SDS011;59081;42.706;23.306;2022-09-09T15:36:21;16.10;;;6.32;;
43933;SDS011;59081;42.706;23.306;2022-09-09T15:38:48;12.77;;;6.07;;
43933;SDS011;59081;42.706;23.306;2022-09-09T15:41:14;11.98;;;6.43;;
43933;SDS011;59081;42.706;23.306;2022-09-09T15:43:47;15.40;;;7.13;;
43933;SDS011;59081;42.706;23.306;2022-09-09T15:49:05;18.40;;;7.15;;
43933;SDS011;59081;42.706;23.306;2022-09-09T15:51:45;14.93;;;7.45;;
43933;SDS011;59081;42.706;23.306;2022-09-09T15:54:15;11.77;;;6.40;;
43933;SDS011;59081;42.706;23.306;2022-09-09T15:56:43;13.75;;;6.72;;
43933;SDS011;59081;42.706;23.306;2022-09-09T15:59:09;13.07;;;7.07;;
43933;SDS011;59081;42.706;23.306;2022-09-09T16:01:35;12.95;;;6.10;;
43933;SDS011;59081;42.706;23.306;2022-09-09T16:04:00;15.20;;;6.90;;
43933;SDS011;59081;42.706;23.306;2022-09-09T16:06:27;12.95;;;7.35;;
43933;SDS011;59081;42.706;23.306;2022-09-09T16:08:54;13.05;;;7.45;;
43933;SDS011;59081;42.706;23.306;2022-09-09T16:11:22;13.70;;;7.18;;
43933;SDS011;59081;42.706;23.306;2022-09-09T16:13:52;17.35;;;7.68;;
43933;SDS011;59081;42.706;23.306;2022-09-09T16:16:19;13.75;;;7.30;;
43933;SDS011;59081;42.706;23.306;2022-09-09T16:18:49;16.17;;;7.05;;
43933;SDS011;59081;42.706;23.306;2022-09-09T16:21:20;15.60;;;8.30;;
43933;SDS011;59081;42.706;23.306;2022-09-09T16:23:49;12.70;;;6.38;;
43933;SDS011;59081;42.706;23.306;2022-09-09T16:26:16;11.10;;;6.20;;
43933;SDS011;59081;42.706;23.306;2022-09-09T16:28:43;11.07;;;6.32;;
43933;SDS011;59081;42.706;23.306;2022-09-09T16:31:13;15.65;;;6.90;;
43933;SDS011;59081;42.706;23.306;2022-09-09T16:33:40;18.02;;;8.00;;
43933;SDS011;59081;42.706;23.306;2022-09-09T16:36:07;19.65;;;7.47;;
43933;SDS011;59081;42.706;23.306;2022-09-09T16:38:35;11.82;;;7.97;;
43933;SDS011;59081;42.706;23.306;2022-09-09T16:41:02;23.58;;;9.15;;
43933;SDS011;59081;42.706;23.306;2022-09-09T16:43:30;22.40;;;8.80;;
43933;SDS011;59081;42.706;23.306;2022-09-09T16:45:55;18.33;;;7.95;;
43933;SDS011;59081;42.706;23.306;2022-09-09T16:48:21;18.30;;;9.13;;
43933;SDS011;59081;42.706;23.306;2022-09-09T16:50:46;13.32;;;8.45;;
43933;SDS011;59081;42.706;23.306;2022-09-09T16:53:12;15.07;;;9.23;;
43933;SDS011;59081;42.706;23.306;2022-09-09T16:55:39;16.73;;;9.63;;
43933;SDS011;59081;42.706;23.306;2022-09-09T16:58:06;16.92;;;8.98;;
43933;SDS011;59081;42.706;23.306;2022-09-09T17:00:33;21.15;;;9.18;;
43933;SDS011;59081;42.706;23.306;2022-09-09T17:02:59;15.05;;;7.65;;
43933;SDS011;59081;42.706;23.306;2022-09-09T17:05:25;12.13;;;8.23;;
43933;SDS011;59081;42.706;23.306;2022-09-09T17:07:50;16.15;;;8.32;;